Home > Products > Valid Products > MTR

000
SAUS41 KBOX 281356
MTRMQE
METAR KMQE 281354Z AUTO M11/M16 A2986 RMK AO1 SLP134 T11111161





000
SAUS41 KBOX 281255
MTRMQE
METAR KMQE 281254Z AUTO M12/M16 A2983 RMK AO1 SLP125 T11221161





000
SAUS41 KBOX 281155
MTRMQE
METAR KMQE 281154Z AUTO M13/M17 A2980 RMK AO1 SLP113 70103 T11281167
11117 21133 53035





000
SAUS41 KBOX 281055
MTRMQE
METAR KMQE 281054Z AUTO M13/M16 A2976 RMK AO1 SLP100 T11331161





000
SAUS41 KBOX 280955
MTRMQE
METAR KMQE 280954Z AUTO M13/M16 A2972 RMK AO1 SLP086 T11281156





000
SAUS41 KBOX 280955
MTRMQE
METAR KMQE 280954Z AUTO M13/M16 A2972 RMK AO1 SLP086 T11281156





000
SAUS41 KBOX 280855
MTRMQE
METAR KMQE 280854Z AUTO M13/M16 A2969 RMK AO1 SLP076 T11281156 51027





000
SAUS41 KBOX 280755
MTRMQE
METAR KMQE 280754Z AUTO M12/M15 A2967 RMK AO1 SLP070 T11171150





000
SAUS41 KBOX 280655
MTRMQE
METAR KMQE 280654Z AUTO M12/M15 A2964 RMK AO1 SLP059 T11171150





000
SAUS41 KBOX 280655
MTRMQE
METAR KMQE 280654Z AUTO M12/M15 A2964 RMK AO1 SLP059 T11171150





000
SAUS41 KBOX 280555
MTRMQE
METAR KMQE 280554Z AUTO M12/M15 A2961 RMK AO1 SLP048 60002 T11171150
11106 21117 51017





000
SAUS41 KBOX 280555
MTRMQE
METAR KMQE 280554Z AUTO M12/M15 A2961 RMK AO1 SLP048 60002 T11171150
11106 21117 51017





000
SAUS41 KBOX 280455
MTRMQE
METAR KMQE 280454Z AUTO M12/M14 A2960 RMK AO1 SLP046 T11171144
410831117





000
SAUS41 KBOX 280355
MTRMQE
METAR KMQE 280354Z AUTO M12/M14 A2958 RMK AO1 SLP039 T11171144





000
SAUS41 KBOX 280355
MTRMQE
METAR KMQE 280354Z AUTO M12/M14 A2958 RMK AO1 SLP039 T11171144





000
SAUS41 KBOX 280255
MTRMQE
METAR KMQE 280254Z AUTO M12/M15 A2956 RMK AO1 SLP031 60002 T11171150
51020





000
SAUS41 KBOX 280255
MTRMQE
METAR KMQE 280254Z AUTO M12/M15 A2956 RMK AO1 SLP031 60002 T11171150
51020





000
SAUS41 KBOX 280155
MTRMQE
METAR KMQE 280154Z AUTO M11/M14 A2954 RMK AO1 SLP027 P0001 T11111144





000
SAUS41 KBOX 280055
MTRMQE
METAR KMQE 280054Z AUTO M11/M13 A2952 RMK AO1 SLP017 P0001 T11111133





000
SAUS41 KBOX 272355
MTRMQE
METAR KMQE 272354Z AUTO M11/M13 A2950 RMK AO1 SLP011 P0002 60017
T11061128 11089 21106 53021





000
SAUS41 KBOX 272255
MTRMQE
METAR KMQE 272254Z AUTO M09/M11 A2948 RMK AO1 SLP003 P0001 T10941111





000
SAUS41 KBOX 272155
MTRMQE
METAR KMQE 272154Z AUTO M09/M12 A2945 RMK AO1 SLP994 T10941117





000
SAUS41 KBOX 272055
MTRMQE
METAR KMQE 272054Z AUTO M09/M12 A2943 RMK AO1 SLP988 P0001 60014
T10941122 51010





000
SAUS41 KBOX 271955
MTRMQE
METAR KMQE 271954Z AUTO M10/M12 A2943 RMK AO1 SLP988 P0005 T11001117





000
SAUS41 KBOX 271855
MTRMQE
METAR KMQE 271854Z AUTO M11/M12 A2942 RMK AO1 SLP983 P0008 T11061122





000
SAUS41 KBOX 271755
MTRMQE
METAR KMQE 271754Z AUTO M11/M12 A2940 RMK AO1 SLP978 P0017 60084
T11061117 11106 21111 58009





000
SAUS41 KBOX 271656
MTRMQE
METAR KMQE 271654Z AUTO M11/M12 A2942 RMK AO1 SLP984 P0008 T11061117





000
SAUS41 KBOX 271555
MTRMQE
METAR KMQE 271554Z AUTO M11/M12 A2943 RMK AO1 SLP986 P0006 T11061117
$





000
SAUS41 KBOX 271455
MTRMQE
METAR KMQE 271454Z AUTO M11/M12 A2943 RMK AO1 PRESFR SLP986 P0007
60053 T11061122 58021 $





000
SAUS41 KBOX 271355
MTRMQE
METAR KMQE 271354Z AUTO M11/M12 A2947 RMK AO1 SLP000 P0022 T11061117
$





000
SAUS41 KBOX 271255
MTRMQE
METAR KMQE 271254Z AUTO M11/M12 A2949 RMK AO1 PK WND 36034/1205
SLP005 P0024 T11061122 $





000
SAUS41 KBOX 271155
MTRMQE
METAR KMQE 271154Z AUTO 36019G42KT M11/M12 A2950 RMK AO1 PK WND
35043/1110 SLP008 P0030 60101 70160 T11111122 11094 21111 56014





000
SAUS41 KBOX 271055
MTRMQE
METAR KMQE 271054Z AUTO 36021G39KT M11/M12 A2950 RMK AO1 PK WND
36040/1004 SLP009 P0015 T11061122





000
SAUS41 KBOX 270955
MTRMQE
METAR KMQE 270954Z AUTO 35024G42KT M11/M12 A2950 RMK AO1 PK WND
02042/0946 SLP011 P0015 T11061122





000
SAUS41 KBOX 270955
MTRMQE
METAR KMQE 270954Z AUTO 35024G42KT M11/M12 A2950 RMK AO1 PK WND
02042/0946 SLP011 P0015 T11061122





000
SAUS41 KBOX 270855
MTRMQE
METAR KMQE 270854Z AUTO 36023G35KT M11/M12 A2954 RMK AO1 PK WND
36040/0841 SLP023 P0013 60041 T11061117 58039





000
SAUS41 KBOX 270755
MTRMQE
METAR KMQE 270754Z AUTO 36021G37KT M10/M12 A2959 RMK AO1 PK WND
35037/0753 SLP038 P0015 T11001117





000
SAUS41 KBOX 270655
MTRMQE
METAR KMQE 270654Z AUTO 36017G35KT M10/M12 A2961 RMK AO1 PK WND
02043/0632 SLP048 P0013 T11001117





000
SAUS41 KBOX 270555
MTRMQE
METAR KMQE 270554Z AUTO 01020G38KT M09/M11 A2966 RMK AO1 PK WND
36039/0525 SLP063 P0009 60049 T10941111 11033 21094 58053





000
SAUS41 KBOX 270456
MTRMQE
METAR KMQE 270454Z AUTO 01016G30KT M08/M09 A2972 RMK AO1 PK WND
01032/0439 SLP083 P0011 T10831089 410331128





000
SAUS41 KBOX 270355
MTRMQE
METAR KMQE 270354Z AUTO 02019G40KT M04/M04 A2977 RMK AO1 PK WND
03041/0326 SLP101 P0010 T10391044





000
SAUS41 KBOX 270255
MTRMQE
METAR KMQE 270254Z AUTO 04020G38KT M03/M04 A2982 RMK AO1 PK WND
04039/0202 SLP116 P0007 60019 T10331039 58043





000
SAUS41 KBOX 270155
MTRMQE
METAR KMQE 270154Z AUTO 05023G36KT M04/M05 A2987 RMK AO1 PK WND
04037/0120 PRESFR SLP135 P0007 T10391050





000
SAUS41 KBOX 270055
MTRMQE
METAR KMQE 270054Z AUTO 05022G35KT M04/M04 A2991 RMK AO1 PK WND
05035/0051 SLP151 P0005 T10391044





000
SAUS41 KBOX 262355
MTRMQE
METAR KMQE 262354Z AUTO 06016G33KT M04/M05 A2994 RMK AO1 PK WND
06035/2331 SLP161 P0003 60009 T10391050 11039 21061 58007





000
SAUS41 KBOX 262255
MTRMQE
METAR KMQE 262254Z AUTO 06014G28KT M04/M06 A2995 RMK AO1 PK WND
05029/2232 SLP164 P0002 T10391056





000
SAUS41 KBOX 262155
MTRMQE
METAR KMQE 262154Z AUTO 06015G26KT M04/M06 A2996 RMK AO1 PK WND
07026/2146 SLP167 P0002 T10441056





000
SAUS41 KBOX 262055
MTRMQE
METAR KMQE 262054Z AUTO 07013G23KT M04/M06 A2997 RMK AO1 SLP169
P0001 60002 T10391061 56008





000
SAUS41 KBOX 261955
MTRMQE
METAR KMQE 261954Z AUTO 06013G21KT M04/M06 A2997 RMK AO1 SLP170
T10391061





000
SAUS41 KBOX 261855
MTRMQE
METAR KMQE 261854Z AUTO 07013G23KT M04/M07 A2998 RMK AO1 SLP175
P0001 T10391067





000
SAUS41 KBOX 261755
MTRMQE
METAR KMQE 261754Z AUTO 04011G17KT M06/M08 A2999 RMK AO1 SLP177
60001 T10611083 11061 21128 58026





000
SAUS41 KBOX 261656
MTRMQE
METAR KMQE 261654Z AUTO 03011G16KT M07/M09 A3003 RMK AO1 SLP190
P0001 T10671089





000
SAUS41 KBOX 261557
MTRMQE
METAR KMQE 261554Z AUTO 01009KT M08/M12 A3006 RMK AO1 SLP199
T10831117





000
SAUS41 KBOX 261455
MTRMQE
METAR KMQE 261454Z AUTO 36009KT M10/M14 A3007 RMK AO1 SLP203
T11001144 51002





000
SAUS41 KBOX 261355
MTRMQE
METAR KMQE 261354Z AUTO 36011KT M12/M16 A3007 RMK AO1 SLP204
T11171161





000
SAUS41 KBOX 261255
MTRMQE
METAR KMQE 261254Z AUTO 36012KT M12/M17 A3007 RMK AO1 SLP203
T11221172





000
SAUS41 KBOX 261155
MTRMQE
METAR KMQE 261154Z AUTO 36008KT M13/M17 A3006 RMK AO1 SLP201
T11281172 11094 21128 51008





000
SAUS41 KBOX 261055
MTRMQE
METAR KMQE 261054Z AUTO 36008KT M13/M18 A3005 RMK AO1 SLP198
T11281178





000
SAUS41 KBOX 260955
MTRMQE
METAR KMQE 260954Z AUTO 36006KT M12/M18 A3005 RMK AO1 SLP196
T11221183





000
SAUS41 KBOX 260855
MTRMQE
METAR KMQE 260854Z AUTO 36008KT M12/M18 A3003 RMK AO1 SLP191
T11171178 53016





000
SAUS41 KBOX 260755
MTRMQE
METAR KMQE 260754Z AUTO 34011G17KT M11/M18 A3001 RMK AO1 SLP183
T11111178





000
SAUS41 KBOX 260655
MTRMQE
METAR KMQE 260654Z AUTO 33009KT M11/M16 A3001 RMK AO1 SLP182
T11061161





000
SAUS41 KBOX 260555
MTRMQE
METAR KMQE 260554Z AUTO 33009KT M09/M15 A2999 RMK AO1 SLP174
T10941150 11039 21094 51023





000
SAUS41 KBOX 260455
MTRMQE
METAR KMQE 260454Z AUTO 32011G17KT M08/M14 A2998 RMK AO1 SLP172
T10831144 400061083





000
SAUS41 KBOX 260355
MTRMQE
METAR KMQE 260354Z AUTO 33014G19KT M08/M14 A2994 RMK AO1 SLP156
T10781144





000
SAUS41 KBOX 260255
MTRMQE
METAR KMQE 260254Z AUTO 33013KT M07/M13 A2992 RMK AO1 SLP149
T10671133 51026





000
SAUS41 KBOX 260155
MTRMQE
METAR KMQE 260154Z AUTO 31010KT M06/M13 A2990 RMK AO1 SLP144
T10611128





000
SAUS41 KBOX 260055
MTRMQE
METAR KMQE 260054Z AUTO 30011G18KT M05/M12 A2988 RMK AO1 SLP135
T10501122





000
SAUS41 KBOX 252355
MTRMQE
METAR KMQE 252354Z AUTO 29012G19KT M04/M12 A2984 RMK AO1 SLP123
T10391117 10006 21044 53047





000
SAUS41 KBOX 252255
MTRMQE
METAR KMQE 252254Z AUTO 30011G20KT M04/M11 A2977 RMK AO1 SLP100
T10391106





000
SAUS41 KBOX 252155
MTRMQE
METAR KMQE 252154Z AUTO 29012G18KT M03/M10 A2973 RMK AO1 SLP086
T10331100





000
SAUS41 KBOX 252055
MTRMQE
METAR KMQE 252054Z AUTO 28014G21KT M01/M09 A2970 RMK AO1 PK WND
27026/2004 PRESRR SLP074 T10111094 53035





000
SAUS41 KBOX 251959
MTRMQE
METAR KMQE 251954Z AUTO 28021G28KT M01/M08 A2965 RMK AO1 PK WND
28028/1954 SLP059 T10061083





000
SAUS41 KBOX 251855
MTRMQE
METAR KMQE 251854Z AUTO 29016G28KT M01/M07 A2961 RMK AO1 PK WND
28028/1850 SLP045 T10061067





000
SAUS41 KBOX 251755
MTRMQE
METAR KMQE 251754Z AUTO 28010G22KT 01/M06 A2959 RMK AO1 PK WND
27028/1707 SLP038 T00061056 10006 21022 51016





000
SAUS41 KBOX 251655
MTRMQE
METAR KMQE 251654Z AUTO 27013G22KT 01/M04 A2958 RMK AO1 PK WND
28030/1616 SLP035 T00061039





000
SAUS41 KBOX 251555
MTRMQE
METAR KMQE 251554Z AUTO 27014G24KT 01/M02 A2956 RMK AO1 PK WND
25028/1522 SLP028 T00061022





000
SAUS41 KBOX 251455
MTRMQE
METAR KMQE 251454Z AUTO 25015G25KT 00/M02 A2955 RMK AO1 SLP022
T00001022 51028





    US Dept of Commerce
    National Oceanic and Atmospheric Administration
    National Weather Service
    1325 East West Highway
    Silver Spring, MD 20910
    Page Author: NWS Internet Services Team
Disclaimer
Information Quality
Credits
Glossary
Privacy Policy
Freedom of Information Act (FOIA)
About Us
Career Opportunities